createdAt,value
2022-12-19T00:03:12.537Z,0.74
2022-12-19T00:06:34.419Z,0.73
2022-12-19T00:09:57.709Z,0.77
2022-12-19T00:13:19.803Z,0.80
2022-12-19T00:16:41.601Z,0.62
2022-12-19T00:20:03.431Z,0.79
2022-12-19T00:23:25.326Z,0.80
2022-12-19T00:26:48.537Z,0.83
2022-12-19T00:30:12.352Z,0.83
2022-12-19T00:33:34.500Z,0.74
2022-12-19T00:36:59.144Z,0.85
2022-12-19T00:40:20.826Z,0.71
2022-12-19T00:43:47.019Z,0.85
2022-12-19T00:47:08.770Z,0.84
2022-12-19T00:50:30.705Z,0.85
2022-12-19T00:53:54.632Z,0.84
2022-12-19T00:57:16.451Z,0.84
2022-12-19T01:00:39.583Z,0.85
2022-12-19T01:07:47.881Z,0.85
2022-12-19T01:11:13.306Z,0.87
2022-12-19T01:14:33.977Z,0.92
2022-12-19T01:17:57.039Z,0.87
2022-12-19T01:21:19.051Z,0.91
2022-12-19T01:24:40.920Z,0.93
2022-12-19T01:28:02.957Z,0.92
2022-12-19T01:31:24.969Z,0.93
2022-12-19T01:34:48.117Z,0.87
2022-12-19T01:38:13.836Z,0.86
2022-12-19T01:41:36.221Z,0.91
2022-12-19T01:45:32.005Z,0.90
2022-12-19T01:48:56.722Z,0.99
2022-12-19T01:52:23.529Z,0.98
2022-12-19T01:55:45.800Z,0.91
2022-12-19T01:59:10.654Z,0.91
2022-12-19T02:02:36.748Z,0.88
2022-12-19T02:06:00.975Z,0.91
2022-12-19T02:09:24.551Z,0.94
2022-12-19T02:12:47.540Z,0.96
2022-12-19T02:16:21.302Z,0.94
2022-12-19T02:20:21.910Z,0.91
2022-12-19T02:24:16.541Z,0.90
2022-12-19T02:28:24.231Z,0.89
2022-12-19T02:31:54.250Z,0.89
2022-12-19T02:35:25.435Z,0.87
2022-12-19T02:38:52.136Z,0.88
2022-12-19T02:42:21.510Z,0.83
2022-12-19T02:45:46.125Z,0.86
2022-12-19T02:49:09.720Z,0.84
2022-12-19T02:52:47.001Z,0.84
2022-12-19T02:56:29.411Z,0.77
2022-12-19T03:00:03.527Z,0.82
2022-12-19T03:03:40.728Z,0.82
2022-12-19T03:07:10.345Z,0.84
2022-12-19T03:10:37.851Z,0.82
2022-12-19T03:14:04.048Z,0.78
2022-12-19T03:17:27.357Z,0.82
2022-12-19T03:20:53.357Z,0.83
2022-12-19T03:24:18.872Z,0.80
2022-12-19T03:27:41.673Z,0.80
2022-12-19T03:31:05.499Z,0.73
2022-12-19T03:34:32.804Z,0.77
2022-12-19T03:37:58.270Z,0.80
2022-12-19T03:41:44.392Z,0.77
2022-12-19T03:45:07.947Z,0.64
2022-12-19T03:48:36.206Z,0.75
2022-12-19T03:52:12.444Z,0.73
2022-12-19T03:55:42.640Z,0.71
2022-12-19T03:59:09.348Z,0.60
2022-12-19T04:02:35.401Z,0.66
2022-12-19T04:05:58.440Z,0.61
2022-12-19T04:09:22.935Z,0.60
2022-12-19T04:12:49.749Z,0.59
2022-12-19T04:16:21.015Z,0.59
2022-12-19T04:19:49.321Z,0.52
2022-12-19T04:23:19.150Z,0.47
2022-12-19T04:26:42.947Z,0.48
2022-12-19T04:30:09.198Z,0.44
2022-12-19T04:33:32.380Z,0.49
2022-12-19T04:36:54.408Z,0.45
2022-12-19T04:40:16.422Z,0.39
2022-12-19T04:43:38.225Z,0.40
2022-12-19T04:47:00.052Z,0.39
2022-12-19T04:50:23.297Z,0.36
2022-12-19T04:53:44.760Z,0.36
2022-12-19T04:57:06.472Z,0.34
2022-12-19T05:00:28.275Z,0.37
2022-12-19T05:03:54.329Z,0.39
2022-12-19T05:07:21.834Z,0.38
2022-12-19T05:10:43.898Z,0.35
2022-12-19T05:14:15.746Z,0.39
2022-12-19T05:17:37.885Z,0.37
2022-12-19T05:21:00.099Z,0.44
2022-12-19T05:24:23.240Z,0.43
2022-12-19T05:27:45.322Z,0.47
2022-12-19T05:31:09.188Z,0.40
2022-12-19T05:34:30.845Z,0.40
2022-12-19T05:37:52.763Z,0.42
2022-12-19T05:41:17.741Z,0.42
2022-12-19T05:44:39.610Z,0.42
2022-12-19T05:48:01.749Z,0.42
2022-12-19T05:51:23.966Z,0.41
2022-12-19T05:54:45.925Z,0.40
2022-12-19T05:58:09.057Z,0.41
2022-12-19T06:01:32.585Z,0.39
2022-12-19T06:04:54.578Z,0.40
2022-12-19T06:08:16.378Z,0.40
2022-12-19T06:11:38.305Z,0.42
2022-12-19T06:15:01.496Z,0.44
2022-12-19T06:18:23.508Z,0.43
2022-12-19T06:21:48.453Z,0.38
2022-12-19T06:25:11.691Z,0.38
2022-12-19T06:28:34.941Z,0.40
2022-12-19T06:31:58.225Z,0.43
2022-12-19T06:35:20.194Z,0.44
2022-12-19T06:38:41.959Z,0.46
2022-12-19T06:42:21.228Z,0.47
2022-12-19T06:45:43.003Z,0.46
2022-12-19T06:49:08.952Z,0.47
2022-12-19T06:52:30.738Z,0.47
2022-12-19T06:55:56.815Z,0.46
2022-12-19T06:59:18.867Z,0.50
2022-12-19T07:02:43.716Z,0.50
2022-12-19T07:06:08.299Z,0.47
2022-12-19T07:09:31.874Z,0.54
2022-12-19T07:12:53.563Z,0.59
2022-12-19T07:16:15.716Z,0.62
2022-12-19T07:19:38.415Z,0.62
2022-12-19T07:23:03.350Z,0.65
2022-12-19T07:26:25.355Z,0.67
2022-12-19T07:29:47.214Z,0.66
2022-12-19T07:33:11.106Z,0.67
2022-12-19T07:36:33.775Z,0.71
2022-12-19T07:39:57.324Z,0.72
2022-12-19T07:43:19.541Z,0.72
2022-12-19T07:46:41.317Z,0.74
2022-12-19T07:50:03.088Z,0.78
2022-12-19T07:53:25.679Z,0.82
2022-12-19T07:56:52.676Z,0.84
2022-12-19T08:00:15.327Z,0.86
2022-12-19T08:03:37.373Z,0.82
2022-12-19T08:06:59.197Z,0.77
2022-12-19T08:10:22.989Z,0.79
2022-12-19T08:13:47.187Z,0.78
2022-12-19T08:17:25.073Z,0.84
2022-12-19T08:20:47.903Z,0.85
2022-12-19T08:24:10.530Z,0.86
2022-12-19T08:27:32.137Z,0.91
2022-12-19T08:30:55.473Z,0.87
2022-12-19T08:34:17.597Z,0.91
2022-12-19T08:37:39.995Z,0.94
2022-12-19T08:41:02.086Z,0.94
2022-12-19T08:44:24.070Z,0.95
2022-12-19T08:47:47.320Z,1.01
2022-12-19T08:51:09.991Z,1.03
2022-12-19T08:54:32.301Z,1.05
2022-12-19T08:57:54.535Z,1.09
2022-12-19T09:01:19.431Z,1.04
2022-12-19T09:05:57.668Z,1.16
2022-12-19T09:08:25.741Z,1.17
2022-12-19T09:11:48.420Z,1.15
2022-12-19T09:15:11.005Z,1.16
2022-12-19T09:18:33.209Z,1.06
2022-12-19T09:21:56.987Z,1.16
2022-12-19T09:25:19.255Z,1.12
2022-12-19T09:28:42.590Z,1.19
2022-12-19T09:32:04.388Z,1.19
2022-12-19T09:35:30.325Z,1.21
2022-12-19T09:38:55.891Z,1.20
2022-12-19T09:42:53.190Z,1.25
2022-12-19T09:46:19.279Z,1.23
2022-12-19T09:49:43.234Z,1.03
2022-12-19T09:53:13.593Z,1.11
2022-12-19T09:56:46.268Z,1.14
2022-12-19T10:00:13.129Z,1.09
2022-12-19T10:03:40.517Z,1.05
2022-12-19T10:07:11.331Z,1.02
2022-12-19T10:12:40.779Z,1.00
2022-12-19T10:14:53.533Z,0.95
2022-12-19T10:18:44.185Z,0.89
2022-12-19T10:22:18.716Z,0.86
2022-12-19T10:25:52.850Z,0.84
2022-12-19T10:29:49.588Z,0.78
2022-12-19T10:33:20.915Z,0.75
2022-12-19T10:37:23.264Z,0.76
2022-12-19T10:40:31.770Z,0.64
2022-12-19T10:44:02.534Z,0.71
2022-12-19T10:47:26.092Z,0.63
2022-12-19T10:50:48.433Z,0.64
2022-12-19T10:54:10.795Z,0.60
2022-12-19T10:57:32.807Z,0.54
2022-12-19T11:01:11.502Z,0.44
2022-12-19T11:04:37.395Z,0.48
2022-12-19T11:08:05.238Z,0.39
2022-12-19T11:12:35.778Z,0.34
2022-12-19T11:20:28.430Z,0.33
2022-12-19T11:29:19.607Z,0.30
2022-12-19T11:29:35.298Z,0.25
2022-12-19T11:30:47.112Z,0.19
2022-12-19T11:34:16.917Z,0.26
2022-12-19T11:37:43.704Z,0.23
2022-12-19T11:41:18.021Z,0.22
2022-12-19T11:44:46.437Z,0.20
2022-12-19T11:48:16.972Z,0.18
2022-12-19T11:51:47.184Z,0.04
2022-12-19T11:55:19.520Z,0.14
2022-12-19T11:58:54.285Z,0.14
2022-12-19T12:02:48.251Z,0.05
2022-12-19T12:06:14.287Z,-0.01
2022-12-19T12:12:32.202Z,0.12
2022-12-19T12:24:51.696Z,0.03
2022-12-19T12:31:21.569Z,0.11
2022-12-19T12:31:39.253Z,0.12
2022-12-19T12:31:52.736Z,0.09
2022-12-19T12:31:58.649Z,0.05
2022-12-19T12:35:33.434Z,0.04
2022-12-19T12:41:06.181Z,0.03
2022-12-19T12:44:33.468Z,-0.18
2022-12-19T12:47:55.465Z,-0.05
2022-12-19T12:51:19.404Z,-0.13
2022-12-19T12:54:44.311Z,-0.12
2022-12-19T12:58:12.146Z,-0.11
2022-12-19T13:01:38.308Z,-0.14
2022-12-19T13:05:02.128Z,-0.18
2022-12-19T13:08:38.317Z,-0.22
2022-12-19T13:12:22.040Z,-0.25
2022-12-19T13:15:45.903Z,-0.17
2022-12-19T13:19:22.573Z,-0.22
2022-12-19T13:23:04.177Z,-0.21
2022-12-19T13:26:52.529Z,-0.24
2022-12-19T13:30:19.462Z,-0.25
2022-12-19T13:33:47.269Z,-0.27
2022-12-19T13:39:49.009Z,-0.37
2022-12-19T13:41:45.480Z,-0.35
2022-12-19T13:45:11.217Z,-0.37
2022-12-19T13:48:37.914Z,-0.53
2022-12-19T13:52:01.175Z,-0.41
2022-12-19T13:55:23.686Z,-0.44
2022-12-19T13:58:49.303Z,-0.50
2022-12-19T14:02:22.011Z,-0.56
2022-12-19T14:06:17.778Z,-0.57
2022-12-19T14:11:31.445Z,-0.55
2022-12-19T14:13:50.471Z,-0.58
2022-12-19T14:17:20.968Z,-0.56
2022-12-19T14:22:07.369Z,-0.59
2022-12-19T14:24:25.361Z,-0.64
2022-12-19T14:28:17.826Z,-0.69
2022-12-19T14:31:58.708Z,-0.90
2022-12-19T14:36:07.678Z,-0.88
2022-12-19T14:39:22.264Z,-0.98
2022-12-19T14:43:58.820Z,-1.04
2022-12-19T14:51:20.239Z,-1.13
2022-12-19T14:54:04.328Z,-1.18
2022-12-19T14:58:53.971Z,-1.32
2022-12-19T15:01:56.683Z,-1.35
2022-12-19T15:05:20.591Z,-1.45
2022-12-19T15:11:00.746Z,-1.48
2022-12-19T15:14:49.481Z,-1.54
2022-12-19T15:16:31.726Z,-1.66
2022-12-19T15:19:53.722Z,-1.60
2022-12-19T15:23:19.953Z,-1.65
2022-12-19T15:26:49.437Z,-1.72
2022-12-19T15:30:18.070Z,-1.79
2022-12-19T15:33:53.842Z,-1.97
2022-12-19T15:37:22.410Z,-2.03
2022-12-19T15:40:44.373Z,-2.18
2022-12-19T15:44:11.487Z,-2.35
2022-12-19T15:47:35.354Z,-2.45
2022-12-19T15:50:57.370Z,-2.57
2022-12-19T15:54:47.785Z,-2.67
2022-12-19T15:58:05.969Z,-2.78
2022-12-19T16:01:32.212Z,-2.91
2022-12-19T16:05:03.271Z,-3.26
2022-12-19T16:08:26.322Z,-3.08
2022-12-19T16:11:48.627Z,-3.26
2022-12-19T16:15:16.749Z,-3.29
2022-12-19T16:18:40.830Z,-3.36
2022-12-19T16:22:03.193Z,-3.40
2022-12-19T16:25:33.293Z,-3.46
2022-12-19T16:28:55.163Z,-3.57
2022-12-19T16:32:17.548Z,-3.64
2022-12-19T16:36:03.528Z,-3.73
2022-12-19T16:39:22.959Z,-3.80
2022-12-19T16:42:45.511Z,-3.93
2022-12-19T16:46:08.908Z,-3.99
2022-12-19T16:49:34.312Z,-4.07
2022-12-19T16:52:58.616Z,-4.20
2022-12-19T16:56:26.281Z,-4.37
2022-12-19T16:59:49.718Z,-4.38
2022-12-19T17:03:27.534Z,-4.70
2022-12-19T17:06:50.255Z,-4.56
2022-12-19T17:10:14.419Z,-4.58
2022-12-19T17:13:36.121Z,-4.70
2022-12-19T17:16:59.805Z,-4.66
2022-12-19T17:20:25.287Z,-4.72
2022-12-19T17:23:47.622Z,-4.64
2022-12-19T17:27:10.719Z,-4.72
2022-12-19T17:30:33.000Z,-4.68
2022-12-19T17:33:58.047Z,-4.81
2022-12-19T17:37:20.002Z,-4.96
2022-12-19T17:40:42.236Z,-4.81
2022-12-19T17:44:05.901Z,-4.87
2022-12-19T17:47:30.477Z,-4.98
2022-12-19T17:50:52.983Z,-4.94
2022-12-19T17:54:14.865Z,-4.96
2022-12-19T17:57:39.785Z,-5.07
2022-12-19T18:01:02.978Z,-5.06
2022-12-19T18:04:26.463Z,-5.06
2022-12-19T18:07:48.538Z,-5.15
2022-12-19T18:11:19.213Z,-5.14
2022-12-19T18:14:41.668Z,-5.26
2022-12-19T18:18:05.598Z,-5.33
2022-12-19T18:21:27.539Z,-5.31
2022-12-19T18:24:53.044Z,-5.46
2022-12-19T18:28:16.068Z,-5.46
2022-12-19T18:31:39.458Z,-5.45
2022-12-19T18:35:04.508Z,-5.45
2022-12-19T18:38:26.245Z,-5.51
2022-12-19T18:41:48.809Z,-5.61
2022-12-19T18:45:15.283Z,-5.67
2022-12-19T18:48:38.918Z,-5.68
2022-12-19T18:52:02.316Z,-5.73
2022-12-19T18:55:25.724Z,-5.83
2022-12-19T18:58:47.424Z,-5.87
2022-12-19T19:02:25.139Z,-5.87
2022-12-19T19:05:48.036Z,-5.94
2022-12-19T19:09:16.047Z,-6.18
2022-12-19T19:12:37.981Z,-6.06
2022-12-19T19:16:02.156Z,-6.09
2022-12-19T19:19:24.274Z,-6.10
2022-12-19T19:22:46.578Z,-6.12
2022-12-19T19:26:10.056Z,-6.12
2022-12-19T19:29:32.324Z,-6.12
2022-12-19T19:32:58.541Z,-6.17
2022-12-19T19:36:25.329Z,-6.20
2022-12-19T19:39:48.011Z,-6.12
2022-12-19T19:43:14.388Z,-6.12
2022-12-19T19:46:37.647Z,-6.12
2022-12-19T19:49:59.832Z,-6.14
2022-12-19T19:53:21.999Z,-6.12
2022-12-19T19:56:43.738Z,-6.16
2022-12-19T20:00:08.697Z,-6.27
2022-12-19T20:03:31.033Z,-6.17
2022-12-19T20:06:52.593Z,-6.20
2022-12-19T20:10:14.383Z,-6.26
2022-12-19T20:13:36.366Z,-6.31
2022-12-19T20:16:59.324Z,-6.41
2022-12-19T20:20:21.543Z,-6.41
2022-12-19T20:23:44.665Z,-6.48
2022-12-19T20:27:06.499Z,-6.54
2022-12-19T20:30:28.466Z,-6.65
2022-12-19T20:33:53.286Z,-6.64
2022-12-19T20:37:15.960Z,-6.90
2022-12-19T20:40:37.927Z,-6.75
2022-12-19T20:44:00.060Z,-6.78
2022-12-19T20:47:22.150Z,-6.88
2022-12-19T20:50:45.408Z,-6.89
2022-12-19T20:54:08.766Z,-6.99
2022-12-19T20:57:31.356Z,-6.97
2022-12-19T21:00:56.330Z,-6.99
2022-12-19T21:04:18.579Z,-7.02
2022-12-19T21:07:42.242Z,-7.08
2022-12-19T21:11:05.629Z,-7.11
2022-12-19T21:14:27.670Z,-7.15
2022-12-19T21:17:49.702Z,-7.20
2022-12-19T21:21:15.416Z,-7.20
2022-12-19T21:24:38.769Z,-7.31
2022-12-19T21:28:00.970Z,-7.25
2022-12-19T21:31:25.601Z,-7.28
2022-12-19T21:34:49.708Z,-7.33
2022-12-19T21:38:11.642Z,-7.37
2022-12-19T21:41:35.260Z,-7.38
2022-12-19T21:44:57.245Z,-7.50
2022-12-19T21:48:19.007Z,-7.45
2022-12-19T21:51:40.949Z,-7.06
2022-12-19T21:55:02.885Z,-6.66
2022-12-19T21:58:26.271Z,-6.94
2022-12-19T22:01:48.539Z,-7.13
2022-12-19T22:05:11.032Z,-7.34
2022-12-19T22:08:32.660Z,-7.34
2022-12-19T22:11:55.027Z,-7.41
2022-12-19T22:15:21.091Z,-7.42
2022-12-19T22:18:43.380Z,-7.45
2022-12-19T22:22:05.444Z,-7.46
2022-12-19T22:25:27.288Z,-7.46
2022-12-19T22:28:50.835Z,-7.51
2022-12-19T22:32:13.975Z,-7.49
2022-12-19T22:35:36.101Z,-7.53
2022-12-19T22:38:59.367Z,-7.55
2022-12-19T22:42:21.192Z,-7.53
2022-12-19T22:45:43.304Z,-7.53
2022-12-19T22:49:08.981Z,-7.61
2022-12-19T22:52:30.699Z,-7.53
2022-12-19T22:55:52.428Z,-7.55
2022-12-19T22:59:14.254Z,-7.56
2022-12-19T23:02:37.158Z,-7.50
2022-12-19T23:06:03.264Z,-7.48
